sensor_id;sensor_type;location;lat;lon;timestamp;pressure;altitude;pressure_sealevel;temperature
73673;BMP280;61972;19.480;-99.240;2023-05-07T00:02:16;77564.28;;;30.68
73673;BMP280;61972;19.480;-99.240;2023-05-07T00:04:42;77577.88;;;30.66
73673;BMP280;61972;19.480;-99.240;2023-05-07T00:07:09;77581.63;;;30.67
73673;BMP280;61972;19.480;-99.240;2023-05-07T00:09:36;77591.75;;;30.69
73673;BMP280;61972;19.480;-99.240;2023-05-07T00:12:02;77593.63;;;30.76
73673;BMP280;61972;19.480;-99.240;2023-05-07T00:14:28;77605.53;;;30.82
73673;BMP280;61972;19.480;-99.240;2023-05-07T00:16:55;77607.53;;;30.91
73673;BMP280;61972;19.480;-99.240;2023-05-07T00:19:21;77614.38;;;31.03
73673;BMP280;61972;19.480;-99.240;2023-05-07T00:21:47;77624.44;;;31.15
73673;BMP280;61972;19.480;-99.240;2023-05-07T00:24:13;77628.75;;;31.28
73673;BMP280;61972;19.480;-99.240;2023-05-07T00:26:39;77637.25;;;31.41
73673;BMP280;61972;19.480;-99.240;2023-05-07T00:29:06;77652.66;;;31.56
73673;BMP280;61972;19.480;-99.240;2023-05-07T00:31:32;77643.66;;;31.67
73673;BMP280;61972;19.480;-99.240;2023-05-07T00:33:58;77661.06;;;31.78
73673;BMP280;61972;19.480;-99.240;2023-05-07T00:36:24;77661.38;;;31.86
73673;BMP280;61972;19.480;-99.240;2023-05-07T00:38:51;77677.59;;;31.94
73673;BMP280;61972;19.480;-99.240;2023-05-07T00:41:17;77681.09;;;32.02
73673;BMP280;61972;19.480;-99.240;2023-05-07T00:43:44;77682.97;;;32.08
73673;BMP280;61972;19.480;-99.240;2023-05-07T00:46:10;77687.50;;;32.15
73673;BMP280;61972;19.480;-99.240;2023-05-07T00:48:37;77698.31;;;32.20
73673;BMP280;61972;19.480;-99.240;2023-05-07T00:51:03;77699.63;;;32.26
73673;BMP280;61972;19.480;-99.240;2023-05-07T00:53:30;77718.34;;;32.32
73673;BMP280;61972;19.480;-99.240;2023-05-07T00:55:56;77722.19;;;32.35
73673;BMP280;61972;19.480;-99.240;2023-05-07T00:58:23;77731.34;;;32.39
73673;BMP280;61972;19.480;-99.240;2023-05-07T01:00:50;77753.72;;;32.42
73673;BMP280;61972;19.480;-99.240;2023-05-07T01:03:16;77754.81;;;32.43
73673;BMP280;61972;19.480;-99.240;2023-05-07T01:05:43;77765.53;;;32.46
73673;BMP280;61972;19.480;-99.240;2023-05-07T01:08:10;77772.47;;;32.47
73673;BMP280;61972;19.480;-99.240;2023-05-07T01:10:36;77791.06;;;32.50
73673;BMP280;61972;19.480;-99.240;2023-05-07T01:13:03;77807.53;;;32.51
73673;BMP280;61972;19.480;-99.240;2023-05-07T01:15:32;77828.69;;;32.51
73673;BMP280;61972;19.480;-99.240;2023-05-07T01:18:00;77834.53;;;32.51
73673;BMP280;61972;19.480;-99.240;2023-05-07T01:20:28;77850.41;;;32.51
73673;BMP280;61972;19.480;-99.240;2023-05-07T01:22:54;77868.47;;;32.53
73673;BMP280;61972;19.480;-99.240;2023-05-07T01:25:22;77890.75;;;32.54
73673;BMP280;61972;19.480;-99.240;2023-05-07T01:27:48;77905.53;;;32.53
73673;BMP280;61972;19.480;-99.240;2023-05-07T01:30:15;77924.06;;;32.53
73673;BMP280;61972;19.480;-99.240;2023-05-07T01:32:51;77940.38;;;32.51
73673;BMP280;61972;19.480;-99.240;2023-05-07T01:35:29;77949.72;;;32.47
73673;BMP280;61972;19.480;-99.240;2023-05-07T01:37:56;77943.22;;;32.44
73673;BMP280;61972;19.480;-99.240;2023-05-07T01:40:24;77945.19;;;32.41
73673;BMP280;61972;19.480;-99.240;2023-05-07T01:42:50;77940.75;;;32.37
73673;BMP280;61972;19.480;-99.240;2023-05-07T01:45:17;77955.84;;;32.31
73673;BMP280;61972;19.480;-99.240;2023-05-07T01:47:46;77960.34;;;32.25
73673;BMP280;61972;19.480;-99.240;2023-05-07T01:50:15;77984.59;;;32.23
73673;BMP280;61972;19.480;-99.240;2023-05-07T01:52:43;77992.94;;;32.21
73673;BMP280;61972;19.480;-99.240;2023-05-07T01:55:11;77995.59;;;32.21
73673;BMP280;61972;19.480;-99.240;2023-05-07T01:57:46;77997.69;;;32.21
73673;BMP280;61972;19.480;-99.240;2023-05-07T02:00:13;77996.03;;;32.19
73673;BMP280;61972;19.480;-99.240;2023-05-07T02:02:42;78003.94;;;32.19
73673;BMP280;61972;19.480;-99.240;2023-05-07T02:05:08;78016.59;;;32.19
73673;BMP280;61972;19.480;-99.240;2023-05-07T02:07:39;78021.38;;;32.18
73673;BMP280;61972;19.480;-99.240;2023-05-07T02:10:09;78027.75;;;32.19
73673;BMP280;61972;19.480;-99.240;2023-05-07T02:12:35;78029.31;;;32.18
73673;BMP280;61972;19.480;-99.240;2023-05-07T02:15:10;78033.03;;;32.19
73673;BMP280;61972;19.480;-99.240;2023-05-07T02:18:00;78022.47;;;32.19
73673;BMP280;61972;19.480;-99.240;2023-05-07T02:20:36;78001.84;;;32.20
73673;BMP280;61972;19.480;-99.240;2023-05-07T02:23:04;77991.28;;;32.20
73673;BMP280;61972;19.480;-99.240;2023-05-07T02:25:30;78006.59;;;32.19
73673;BMP280;61972;19.480;-99.240;2023-05-07T02:28:06;78025.53;;;32.17
73673;BMP280;61972;19.480;-99.240;2023-05-07T02:30:41;78041.97;;;32.18
73673;BMP280;61972;19.480;-99.240;2023-05-07T02:33:16;78055.19;;;32.18
73673;BMP280;61972;19.480;-99.240;2023-05-07T02:35:55;78057.28;;;32.17
73673;BMP280;61972;19.480;-99.240;2023-05-07T02:38:56;78057.84;;;32.18
73673;BMP280;61972;19.480;-99.240;2023-05-07T02:41:26;78052.53;;;32.18
73673;BMP280;61972;19.480;-99.240;2023-05-07T02:43:56;78040.88;;;32.17
73673;BMP280;61972;19.480;-99.240;2023-05-07T02:46:24;78052.53;;;32.18
73673;BMP280;61972;19.480;-99.240;2023-05-07T02:48:51;78063.69;;;32.18
73673;BMP280;61972;19.480;-99.240;2023-05-07T02:51:21;78073.16;;;32.17
73673;BMP280;61972;19.480;-99.240;2023-05-07T02:53:50;78073.16;;;32.17
73673;BMP280;61972;19.480;-99.240;2023-05-07T02:56:22;78081.09;;;32.17
73673;BMP280;61972;19.480;-99.240;2023-05-07T02:58:51;78087.38;;;32.16
73673;BMP280;61972;19.480;-99.240;2023-05-07T03:01:20;78078.31;;;32.15
73673;BMP280;61972;19.480;-99.240;2023-05-07T03:03:46;78069.81;;;32.14
73673;BMP280;61972;19.480;-99.240;2023-05-07T03:06:15;78051.75;;;32.12
73673;BMP280;61972;19.480;-99.240;2023-05-07T03:08:41;78036.84;;;32.10
73673;BMP280;61972;19.480;-99.240;2023-05-07T03:11:10;78020.31;;;32.07
73673;BMP280;61972;19.480;-99.240;2023-05-07T03:13:36;78010.72;;;32.06
73673;BMP280;61972;19.480;-99.240;2023-05-07T03:16:02;77996.81;;;32.03
73673;BMP280;61972;19.480;-99.240;2023-05-07T03:18:28;77981.38;;;32.01
73673;BMP280;61972;19.480;-99.240;2023-05-07T03:20:57;77977.50;;;31.97
73673;BMP280;61972;19.480;-99.240;2023-05-07T03:23:23;77968.38;;;31.94
73673;BMP280;61972;19.480;-99.240;2023-05-07T03:25:50;77981.44;;;31.91
73673;BMP280;61972;19.480;-99.240;2023-05-07T03:28:16;77989.81;;;31.89
73673;BMP280;61972;19.480;-99.240;2023-05-07T03:30:45;78008.75;;;31.87
73673;BMP280;61972;19.480;-99.240;2023-05-07T03:33:20;78010.81;;;31.86
73673;BMP280;61972;19.480;-99.240;2023-05-07T03:35:51;78018.75;;;31.86
73673;BMP280;61972;19.480;-99.240;2023-05-07T03:38:29;78018.75;;;31.86
73673;BMP280;61972;19.480;-99.240;2023-05-07T03:40:55;78017.09;;;31.85
73673;BMP280;61972;19.480;-99.240;2023-05-07T03:43:21;78025.03;;;31.85
73673;BMP280;61972;19.480;-99.240;2023-05-07T03:45:48;78033.94;;;31.83
73673;BMP280;61972;19.480;-99.240;2023-05-07T03:48:17;78030.72;;;31.83
73673;BMP280;61972;19.480;-99.240;2023-05-07T03:50:43;78038.13;;;31.82
73673;BMP280;61972;19.480;-99.240;2023-05-07T03:53:09;78047.44;;;31.79
73673;BMP280;61972;19.480;-99.240;2023-05-07T03:55:35;78044.69;;;31.76
73673;BMP280;61972;19.480;-99.240;2023-05-07T03:58:01;78023.00;;;31.76
73673;BMP280;61972;19.480;-99.240;2023-05-07T04:00:27;78012.28;;;31.73
73673;BMP280;61972;19.480;-99.240;2023-05-07T04:02:54;78002.16;;;31.71
73673;BMP280;61972;19.480;-99.240;2023-05-07T04:05:20;78003.69;;;31.70
73673;BMP280;61972;19.480;-99.240;2023-05-07T04:07:46;77998.25;;;31.67
73673;BMP280;61972;19.480;-99.240;2023-05-07T04:10:12;78018.28;;;31.66
73673;BMP280;61972;19.480;-99.240;2023-05-07T04:12:39;78020.38;;;31.66
73673;BMP280;61972;19.480;-99.240;2023-05-07T04:15:05;78036.25;;;31.66
73673;BMP280;61972;19.480;-99.240;2023-05-07T04:17:31;78044.59;;;31.64
73673;BMP280;61972;19.480;-99.240;2023-05-07T04:20:00;78053.09;;;31.64
73673;BMP280;61972;19.480;-99.240;2023-05-07T04:22:29;78052.53;;;31.64
73673;BMP280;61972;19.480;-99.240;2023-05-07T04:24:55;78052.53;;;31.64
73673;BMP280;61972;19.480;-99.240;2023-05-07T04:27:21;78057.81;;;31.64
73673;BMP280;61972;19.480;-99.240;2023-05-07T04:29:50;78055.16;;;31.64
73673;BMP280;61972;19.480;-99.240;2023-05-07T04:32:17;78057.81;;;31.64
73673;BMP280;61972;19.480;-99.240;2023-05-07T04:34:43;78059.34;;;31.63
73673;BMP280;61972;19.480;-99.240;2023-05-07T04:37:09;78062.00;;;31.63
73673;BMP280;61972;19.480;-99.240;2023-05-07T04:39:35;78065.19;;;31.63
73673;BMP280;61972;19.480;-99.240;2023-05-07T04:42:01;78061.44;;;31.62
73673;BMP280;61972;19.480;-99.240;2023-05-07T04:44:28;78067.28;;;31.63
73673;BMP280;61972;19.480;-99.240;2023-05-07T04:46:56;78056.16;;;31.62
73673;BMP280;61972;19.480;-99.240;2023-05-07T04:49:23;78061.44;;;31.62
73673;BMP280;61972;19.480;-99.240;2023-05-07T04:51:49;78069.91;;;31.63
73673;BMP280;61972;19.480;-99.240;2023-05-07T04:54:15;78064.63;;;31.63
73673;BMP280;61972;19.480;-99.240;2023-05-07T04:56:41;78069.38;;;31.62
73673;BMP280;61972;19.480;-99.240;2023-05-07T04:59:35;78059.22;;;31.60
73673;BMP280;61972;19.480;-99.240;2023-05-07T05:02:01;78059.75;;;31.61
73673;BMP280;61972;19.480;-99.240;2023-05-07T05:04:30;78061.84;;;31.60
73673;BMP280;61972;19.480;-99.240;2023-05-07T05:06:56;78054.47;;;31.61
73673;BMP280;61972;19.480;-99.240;2023-05-07T05:09:22;78055.47;;;31.59
73673;BMP280;61972;19.480;-99.240;2023-05-07T05:11:48;78056.44;;;31.58
73673;BMP280;61972;19.480;-99.240;2023-05-07T05:14:14;78060.63;;;31.57
73673;BMP280;61972;19.480;-99.240;2023-05-07T05:16:40;78061.59;;;31.55
73673;BMP280;61972;19.480;-99.240;2023-05-07T05:19:06;78062.59;;;31.54
73673;BMP280;61972;19.480;-99.240;2023-05-07T05:21:32;78066.19;;;31.52
73673;BMP280;61972;19.480;-99.240;2023-05-07T05:23:58;78068.69;;;31.49
73673;BMP280;61972;19.480;-99.240;2023-05-07T05:26:25;78061.75;;;31.48
73673;BMP280;61972;19.480;-99.240;2023-05-07T05:28:51;78054.78;;;31.46
73673;BMP280;61972;19.480;-99.240;2023-05-07T05:31:17;78060.09;;;31.46
73673;BMP280;61972;19.480;-99.240;2023-05-07T05:33:43;78052.16;;;31.46
73673;BMP280;61972;19.480;-99.240;2023-05-07T05:36:10;78042.59;;;31.45
73673;BMP280;61972;19.480;-99.240;2023-05-07T05:38:37;78048.88;;;31.43
73673;BMP280;61972;19.480;-99.240;2023-05-07T05:41:03;78043.59;;;31.43
73673;BMP280;61972;19.480;-99.240;2023-05-07T05:43:30;78045.09;;;31.42
73673;BMP280;61972;19.480;-99.240;2023-05-07T05:45:56;78047.75;;;31.42
73673;BMP280;61972;19.480;-99.240;2023-05-07T05:48:23;78046.06;;;31.41
73673;BMP280;61972;19.480;-99.240;2023-05-07T05:50:49;78048.16;;;31.40
73673;BMP280;61972;19.480;-99.240;2023-05-07T05:53:15;78043.97;;;31.41
73673;BMP280;61972;19.480;-99.240;2023-05-07T05:55:42;78045.53;;;31.40
73673;BMP280;61972;19.480;-99.240;2023-05-07T05:58:08;78035.91;;;31.39
73673;BMP280;61972;19.480;-99.240;2023-05-07T06:00:35;78037.03;;;31.40
73673;BMP280;61972;19.480;-99.240;2023-05-07T06:03:01;78030.09;;;31.38
73673;BMP280;61972;19.480;-99.240;2023-05-07T06:05:27;78027.44;;;31.38
73673;BMP280;61972;19.480;-99.240;2023-05-07T06:07:53;78029.00;;;31.37
73673;BMP280;61972;19.480;-99.240;2023-05-07T06:10:20;78027.88;;;31.36
73673;BMP280;61972;19.480;-99.240;2023-05-07T06:12:46;78020.94;;;31.35
73673;BMP280;61972;19.480;-99.240;2023-05-07T06:15:13;78018.81;;;31.35
73673;BMP280;61972;19.480;-99.240;2023-05-07T06:17:39;78013.03;;;31.35
73673;BMP280;61972;19.480;-99.240;2023-05-07T06:20:06;78012.44;;;31.34
73673;BMP280;61972;19.480;-99.240;2023-05-07T06:22:32;78007.16;;;31.34
73673;BMP280;61972;19.480;-99.240;2023-05-07T06:24:59;78001.88;;;31.34
73673;BMP280;61972;19.480;-99.240;2023-05-07T06:27:33;78009.81;;;31.34
73673;BMP280;61972;19.480;-99.240;2023-05-07T06:29:59;78012.03;;;31.36
73673;BMP280;61972;19.480;-99.240;2023-05-07T06:32:26;78000.34;;;31.35
73673;BMP280;61972;19.480;-99.240;2023-05-07T06:34:52;78000.34;;;31.35
73673;BMP280;61972;19.480;-99.240;2023-05-07T06:37:18;78012.03;;;31.36
73673;BMP280;61972;19.480;-99.240;2023-05-07T06:39:44;78010.50;;;31.37
73673;BMP280;61972;19.480;-99.240;2023-05-07T06:42:10;78002.56;;;31.37
73673;BMP280;61972;19.480;-99.240;2023-05-07T06:44:37;78002.56;;;31.37
73673;BMP280;61972;19.480;-99.240;2023-05-07T06:47:03;77989.78;;;31.35
73673;BMP280;61972;19.480;-99.240;2023-05-07T06:49:29;77995.63;;;31.36
73673;BMP280;61972;19.480;-99.240;2023-05-07T06:51:58;77998.81;;;31.36
73673;BMP280;61972;19.480;-99.240;2023-05-07T06:54:31;78006.75;;;31.36
73673;BMP280;61972;19.480;-99.240;2023-05-07T06:56:58;78002.03;;;31.37
73673;BMP280;61972;19.480;-99.240;2023-05-07T06:59:24;78002.97;;;31.35
73673;BMP280;61972;19.480;-99.240;2023-05-07T07:01:53;77994.53;;;31.35
73673;BMP280;61972;19.480;-99.240;2023-05-07T07:04:19;77994.53;;;31.35
73673;BMP280;61972;19.480;-99.240;2023-05-07T07:06:47;77987.56;;;31.33
73673;BMP280;61972;19.480;-99.240;2023-05-07T07:09:14;77972.28;;;31.34
73673;BMP280;61972;19.480;-99.240;2023-05-07T07:11:40;77975.91;;;31.32
73673;BMP280;61972;19.480;-99.240;2023-05-07T07:14:06;77972.16;;;31.31
73673;BMP280;61972;19.480;-99.240;2023-05-07T07:16:32;77968.41;;;31.30
73673;BMP280;61972;19.480;-99.240;2023-05-07T07:19:00;77974.81;;;31.31
73673;BMP280;61972;19.480;-99.240;2023-05-07T07:21:26;77966.88;;;31.31
73673;BMP280;61972;19.480;-99.240;2023-05-07T07:23:52;77959.50;;;31.31
73673;BMP280;61972;19.480;-99.240;2023-05-07T07:26:18;77955.31;;;31.32
73673;BMP280;61972;19.480;-99.240;2023-05-07T07:28:45;77955.88;;;31.33
73673;BMP280;61972;19.480;-99.240;2023-05-07T07:31:12;77952.81;;;31.35
73673;BMP280;61972;19.480;-99.240;2023-05-07T07:33:38;77943.34;;;31.36
73673;BMP280;61972;19.480;-99.240;2023-05-07T07:36:09;77938.06;;;31.36
73673;BMP280;61972;19.480;-99.240;2023-05-07T07:38:35;77932.34;;;31.38
73673;BMP280;61972;19.480;-99.240;2023-05-07T07:41:01;77936.13;;;31.39
73673;BMP280;61972;19.480;-99.240;2023-05-07T07:43:28;77936.13;;;31.39
73673;BMP280;61972;19.480;-99.240;2023-05-07T07:45:54;77929.84;;;31.41
73673;BMP280;61972;19.480;-99.240;2023-05-07T07:48:20;77931.53;;;31.42
73673;BMP280;61972;19.480;-99.240;2023-05-07T07:50:49;77926.25;;;31.42
73673;BMP280;61972;19.480;-99.240;2023-05-07T07:53:17;77930.53;;;31.44
73673;BMP280;61972;19.480;-99.240;2023-05-07T07:55:43;77925.81;;;31.44
73673;BMP280;61972;19.480;-99.240;2023-05-07T07:58:09;77921.63;;;31.45
73673;BMP280;61972;19.480;-99.240;2023-05-07T08:00:35;77917.44;;;31.46
73673;BMP280;61972;19.480;-99.240;2023-05-07T08:03:02;77923.72;;;31.45
73673;BMP280;61972;19.480;-99.240;2023-05-07T08:05:30;77915.25;;;31.44
73673;BMP280;61972;19.480;-99.240;2023-05-07T08:07:56;77917.31;;;31.44
73673;BMP280;61972;19.480;-99.240;2023-05-07T08:10:22;77900.25;;;31.40
73673;BMP280;61972;19.480;-99.240;2023-05-07T08:12:49;77908.59;;;31.38
73673;BMP280;61972;19.480;-99.240;2023-05-07T08:15:15;77909.03;;;31.36
73673;BMP280;61972;19.480;-99.240;2023-05-07T08:17:42;77915.31;;;31.35
73673;BMP280;61972;19.480;-99.240;2023-05-07T08:20:09;77905.69;;;31.33
73673;BMP280;61972;19.480;-99.240;2023-05-07T08:22:36;77896.13;;;31.31
73673;BMP280;61972;19.480;-99.240;2023-05-07T08:25:05;77903.94;;;31.29
73673;BMP280;61972;19.480;-99.240;2023-05-07T08:27:31;77896.00;;;31.29
73673;BMP280;61972;19.480;-99.240;2023-05-07T08:29:57;77897.53;;;31.28
73673;BMP280;61972;19.480;-99.240;2023-05-07T08:32:23;77896.41;;;31.27
73673;BMP280;61972;19.480;-99.240;2023-05-07T08:34:49;77891.13;;;31.27
73673;BMP280;61972;19.480;-99.240;2023-05-07T08:37:15;77896.97;;;31.27
73673;BMP280;61972;19.480;-99.240;2023-05-07T08:39:42;77896.41;;;31.27
73673;BMP280;61972;19.480;-99.240;2023-05-07T08:42:09;77890.56;;;31.26
73673;BMP280;61972;19.480;-99.240;2023-05-07T08:44:38;77888.94;;;31.25
73673;BMP280;61972;19.480;-99.240;2023-05-07T08:47:07;77884.06;;;31.23
73673;BMP280;61972;19.480;-99.240;2023-05-07T08:49:34;77889.34;;;31.23
73673;BMP280;61972;19.480;-99.240;2023-05-07T08:52:24;77888.25;;;31.22
73673;BMP280;61972;19.480;-99.240;2023-05-07T08:54:50;77889.78;;;31.21
73673;BMP280;61972;19.480;-99.240;2023-05-07T08:57:16;77880.31;;;31.22
73673;BMP280;61972;19.480;-99.240;2023-05-07T08:59:42;77885.19;;;31.24
73673;BMP280;61972;19.480;-99.240;2023-05-07T09:02:12;77882.13;;;31.26
73673;BMP280;61972;19.480;-99.240;2023-05-07T09:04:38;77885.44;;;31.29
73673;BMP280;61972;19.480;-99.240;2023-05-07T09:07:10;77878.63;;;31.30
73673;BMP280;61972;19.480;-99.240;2023-05-07T09:09:39;77875.56;;;31.32
73673;BMP280;61972;19.480;-99.240;2023-05-07T09:12:05;77883.47;;;31.32
73673;BMP280;61972;19.480;-99.240;2023-05-07T09:14:34;77884.13;;;31.35
73673;BMP280;61972;19.480;-99.240;2023-05-07T09:17:00;77885.25;;;31.36
73673;BMP280;61972;19.480;-99.240;2023-05-07T09:19:27;77880.09;;;31.39
73673;BMP280;61972;19.480;-99.240;2023-05-07T09:22:04;77877.59;;;31.41
73673;BMP280;61972;19.480;-99.240;2023-05-07T09:24:30;77881.34;;;31.42
73673;BMP280;61972;19.480;-99.240;2023-05-07T09:27:01;77878.25;;;31.44
73673;BMP280;61972;19.480;-99.240;2023-05-07T09:29:28;77885.22;;;31.46
73673;BMP280;61972;19.480;-99.240;2023-05-07T09:31:56;77881.56;;;31.47
73673;BMP280;61972;19.480;-99.240;2023-05-07T09:34:22;77874.75;;;31.48
73673;BMP280;61972;19.480;-99.240;2023-05-07T09:36:48;77878.50;;;31.49
73673;BMP280;61972;19.480;-99.240;2023-05-07T09:39:14;77877.81;;;31.46
73673;BMP280;61972;19.480;-99.240;2023-05-07T09:41:44;77876.50;;;31.40
73673;BMP280;61972;19.480;-99.240;2023-05-07T09:44:10;77872.38;;;31.31
73673;BMP280;61972;19.480;-99.240;2023-05-07T09:46:38;77870.31;;;31.22
73673;BMP280;61972;19.480;-99.240;2023-05-07T09:49:06;77868.16;;;31.10
73673;BMP280;61972;19.480;-99.240;2023-05-07T09:51:49;77860.72;;;30.99
73673;BMP280;61972;19.480;-99.240;2023-05-07T09:54:17;77860.78;;;30.89
73673;BMP280;61972;19.480;-99.240;2023-05-07T09:56:45;77860.25;;;30.79
73673;BMP280;61972;19.480;-99.240;2023-05-07T09:59:16;77854.44;;;30.68
73673;BMP280;61972;19.480;-99.240;2023-05-07T10:01:43;77860.31;;;30.59
73673;BMP280;61972;19.480;-99.240;2023-05-07T10:04:12;77856.75;;;30.51
73673;BMP280;61972;19.480;-99.240;2023-05-07T10:06:40;77855.78;;;30.43
73673;BMP280;61972;19.480;-99.240;2023-05-07T10:09:07;77848.47;;;30.33
73673;BMP280;61972;19.480;-99.240;2023-05-07T10:11:35;77846.00;;;30.26
73673;BMP280;61972;19.480;-99.240;2023-05-07T10:14:02;77843.50;;;30.19
73673;BMP280;61972;19.480;-99.240;2023-05-07T10:16:32;77840.47;;;30.11
73673;BMP280;61972;19.480;-99.240;2023-05-07T10:19:05;77841.03;;;30.02
73673;BMP280;61972;19.480;-99.240;2023-05-07T10:21:37;77843.28;;;29.94
73673;BMP280;61972;19.480;-99.240;2023-05-07T10:24:25;77838.13;;;29.87
73673;BMP280;61972;19.480;-99.240;2023-05-07T10:26:52;77837.31;;;29.82
73673;BMP280;61972;19.480;-99.240;2023-05-07T10:29:29;77822.22;;;29.75
73673;BMP280;61972;19.480;-99.240;2023-05-07T10:32:11;77827.22;;;29.70
73673;BMP280;61972;19.480;-99.240;2023-05-07T10:34:43;77824.72;;;29.63
73673;BMP280;61972;19.480;-99.240;2023-05-07T10:37:10;77832.34;;;29.57
73673;BMP280;61972;19.480;-99.240;2023-05-07T10:39:37;77831.53;;;29.52
73673;BMP280;61972;19.480;-99.240;2023-05-07T10:42:11;77838.59;;;29.46
73673;BMP280;61972;19.480;-99.240;2023-05-07T10:44:37;77839.44;;;29.42
73673;BMP280;61972;19.480;-99.240;2023-05-07T10:47:07;77832.75;;;29.36
73673;BMP280;61972;19.480;-99.240;2023-05-07T10:52:23;77825.41;;;29.27
73673;BMP280;61972;19.480;-99.240;2023-05-07T10:57:40;77823.34;;;29.17
73673;BMP280;61972;19.480;-99.240;2023-05-07T11:05:30;77829.41;;;29.03
73673;BMP280;61972;19.480;-99.240;2023-05-07T11:07:58;77825.00;;;28.99
73673;BMP280;61972;19.480;-99.240;2023-05-07T11:11:01;77829.41;;;28.94
73673;BMP280;61972;19.480;-99.240;2023-05-07T11:13:48;77830.22;;;28.90
73673;BMP280;61972;19.480;-99.240;2023-05-07T11:16:21;77828.97;;;28.86
73673;BMP280;61972;19.480;-99.240;2023-05-07T11:18:50;77828.28;;;28.83
73673;BMP280;61972;19.480;-99.240;2023-05-07T11:21:35;77824.38;;;28.79
73673;BMP280;61972;19.480;-99.240;2023-05-07T11:24:03;77822.16;;;28.77
73673;BMP280;61972;19.480;-99.240;2023-05-07T11:26:31;77822.44;;;28.73
73673;BMP280;61972;19.480;-99.240;2023-05-07T11:29:11;77827.00;;;28.70
73673;BMP280;61972;19.480;-99.240;2023-05-07T11:31:37;77825.72;;;28.66
73673;BMP280;61972;19.480;-99.240;2023-05-07T11:34:04;77828.78;;;28.64
73673;BMP280;61972;19.480;-99.240;2023-05-07T11:36:32;77830.69;;;28.61
73673;BMP280;61972;19.480;-99.240;2023-05-07T11:38:58;77835.25;;;28.58
73673;BMP280;61972;19.480;-99.240;2023-05-07T11:41:37;77835.66;;;28.56
73673;BMP280;61972;19.480;-99.240;2023-05-07T11:44:03;77837.19;;;28.55
73673;BMP280;61972;19.480;-99.240;2023-05-07T11:46:29;77835.38;;;28.51
73673;BMP280;61972;19.480;-99.240;2023-05-07T11:48:56;77833.16;;;28.49
73673;BMP280;61972;19.480;-99.240;2023-05-07T11:51:24;77834.13;;;28.47
73673;BMP280;61972;19.480;-99.240;2023-05-07T11:53:52;77837.72;;;28.45
73673;BMP280;61972;19.480;-99.240;2023-05-07T11:56:18;77838.53;;;28.41
73673;BMP280;61972;19.480;-99.240;2023-05-07T11:58:46;77836.31;;;28.39
73673;BMP280;61972;19.480;-99.240;2023-05-07T12:01:13;77834.09;;;28.37
73673;BMP280;61972;19.480;-99.240;2023-05-07T12:03:40;77838.22;;;28.36
73673;BMP280;61972;19.480;-99.240;2023-05-07T12:06:10;77838.63;;;28.34
73673;BMP280;61972;19.480;-99.240;2023-05-07T12:08:39;77836.97;;;28.33
73673;BMP280;61972;19.480;-99.240;2023-05-07T12:11:12;77849.97;;;28.30
73673;BMP280;61972;19.480;-99.240;2023-05-07T12:13:38;77855.63;;;28.28
73673;BMP280;61972;19.480;-99.240;2023-05-07T12:16:05;77853.94;;;28.26
73673;BMP280;61972;19.480;-99.240;2023-05-07T12:18:33;77856.03;;;28.26
73673;BMP280;61972;19.480;-99.240;2023-05-07T12:21:00;77863.19;;;28.23
73673;BMP280;61972;19.480;-99.240;2023-05-07T12:23:26;77866.25;;;28.21
73673;BMP280;61972;19.480;-99.240;2023-05-07T12:25:52;77875.09;;;28.19
73673;BMP280;61972;19.480;-99.240;2023-05-07T12:28:19;77876.03;;;28.18
73673;BMP280;61972;19.480;-99.240;2023-05-07T12:30:47;77876.44;;;28.16
73673;BMP280;61972;19.480;-99.240;2023-05-07T12:33:25;77882.66;;;28.14
73673;BMP280;61972;19.480;-99.240;2023-05-07T12:35:53;77877.25;;;28.12
73673;BMP280;61972;19.480;-99.240;2023-05-07T12:38:19;77880.81;;;28.10
73673;BMP280;61972;19.480;-99.240;2023-05-07T12:40:47;77885.00;;;28.09
73673;BMP280;61972;19.480;-99.240;2023-05-07T12:43:27;77875.84;;;28.05
73673;BMP280;61972;19.480;-99.240;2023-05-07T12:45:55;77887.84;;;28.04
73673;BMP280;61972;19.480;-99.240;2023-05-07T12:48:22;77882.59;;;28.04
73673;BMP280;61972;19.480;-99.240;2023-05-07T12:50:52;77891.47;;;28.03
73673;BMP280;61972;19.480;-99.240;2023-05-07T12:53:21;77892.81;;;27.99
73673;BMP280;61972;19.480;-99.240;2023-05-07T12:55:49;77895.44;;;27.99
73673;BMP280;61972;19.480;-99.240;2023-05-07T12:58:27;77901.63;;;27.98
73673;BMP280;61972;19.480;-99.240;2023-05-07T13:00:55;77900.50;;;27.97
73673;BMP280;61972;19.480;-99.240;2023-05-07T13:03:27;77897.75;;;27.94
73673;BMP280;61972;19.480;-99.240;2023-05-07T13:05:55;77899.28;;;27.93
73673;BMP280;61972;19.480;-99.240;2023-05-07T13:08:32;77900.78;;;27.92
73673;BMP280;61972;19.480;-99.240;2023-05-07T13:10:59;77897.59;;;27.92
73673;BMP280;61972;19.480;-99.240;2023-05-07T13:13:32;77904.91;;;27.91
73673;BMP280;61972;19.480;-99.240;2023-05-07T13:15:59;77897.03;;;27.91
73673;BMP280;61972;19.480;-99.240;2023-05-07T13:18:26;77903.81;;;27.90
73673;BMP280;61972;19.480;-99.240;2023-05-07T13:20:53;77895.38;;;27.89
73673;BMP280;61972;19.480;-99.240;2023-05-07T13:23:19;77896.34;;;27.88
73673;BMP280;61972;19.480;-99.240;2023-05-07T13:25:45;77901.59;;;27.88
73673;BMP280;61972;19.480;-99.240;2023-05-07T13:28:14;77904.75;;;27.88
73673;BMP280;61972;19.480;-99.240;2023-05-07T13:30:40;77899.50;;;27.88
73673;BMP280;61972;19.480;-99.240;2023-05-07T13:33:09;77909.47;;;27.88
73673;BMP280;61972;19.480;-99.240;2023-05-07T13:35:35;77908.38;;;27.87
73673;BMP280;61972;19.480;-99.240;2023-05-07T13:38:01;77909.47;;;27.88
73673;BMP280;61972;19.480;-99.240;2023-05-07T13:40:27;77913.22;;;27.89
73673;BMP280;61972;19.480;-99.240;2023-05-07T13:42:53;77914.72;;;27.88
73673;BMP280;61972;19.480;-99.240;2023-05-07T13:45:20;77918.31;;;27.86
73673;BMP280;61972;19.480;-99.240;2023-05-07T13:47:46;77924.13;;;27.87
73673;BMP280;61972;19.480;-99.240;2023-05-07T13:50:14;77925.22;;;27.88
73673;BMP280;61972;19.480;-99.240;2023-05-07T13:52:41;77926.19;;;27.86
73673;BMP280;61972;19.480;-99.240;2023-05-07T13:55:09;77917.75;;;27.86
73673;BMP280;61972;19.480;-99.240;2023-05-07T13:57:38;77915.13;;;27.86
73673;BMP280;61972;19.480;-99.240;2023-05-07T14:00:05;77919.25;;;27.85
73673;BMP280;61972;19.480;-99.240;2023-05-07T14:02:31;77931.28;;;27.84